Weather observations for the past three days for
Cheboygan, Cheboygan County Airport
Metric (Imperial)
Date Time (edt) Wind (kph) Vis. (km) Weather Sky Cond. Temperature (ºC) Relative Humidity Wind Chill (°C) Heat Index (°C) Pressure Precipitation (cm)
Air Dwpt 6 hour altimeter (cm) sea level (mb) 1 hr 3 hr 6 hr
Max. Min.
02 19:35 SW 13 16.09 Fair CLR 9 -9 27% 7 76 0.0
02 19:15 W 13 16.09 Fair CLR 9 -9 27% 7 76 0.0
02 18:56 W 13 16.09 Fair CLR 10 -9 26% 8 76 0.0
02 18:35 W 17 G 26 16.09 Fair CLR 10 -9 26% 8 76.02 0.0
02 18:15 W 20 G 30 16.09 Fair CLR 10 -8 28% 8 76.02 0.0
02 17:55 NW 11 G 26 16.09 Fair CLR 10 -9 26% 9 76.02 0.0
02 17:35 SW 17 16.09 Fair CLR 10 -8 28% 8 76.02 0.0
02 17:15 NW 17 G 26 16.09 Fair CLR 11 -8 26% 76.05 0.0
02 16:55 NW 11 16.09 Fair CLR 10 -9 26% 9 76.05 0.0
02 16:36 W 13 16.09 Fair CLR 11 -8 26% 76.07 0.0
02 16:15 W 26 G 33 16.09 Fair CLR 11 -8 26% 76.07 0.0
02 15:55 Vrbl 7 G 31 16.09 Fair CLR 10 -9 26% 9 76.1 0.0
02 15:35 SW 13 G 26 16.09 A Few Clouds FEW070 10 -8 28% 8 76.12 0.0
02 15:15 W 24 G 33 16.09 Fair CLR 10 -8 28% 7 76.12 0.0
02 14:55 W 13 16.09 Fair CLR 10 -8 28% 8 76.15 0.0
02 14:35 Vrbl 9 G 37 16.09 Fair CLR 10 -9 26% 9 76.15 0.0
02 14:16 NW 20 G 41 16.09 Fair CLR 10 -9 26% 8 76.15 0.0
02 13:55 W 24 16.09 Fair CLR 10 -9 10.1 0.9 26% 7 76.17 0.0
02 13:35 W 26 G 43 16.09 Fair CLR 10 -10 24% 7 76.17 0.0
02 13:15 NW 28 G 39 16.09 Fair CLR 9 -11 23% 6 76.17 0.0
02 12:55 NW 22 16.09 Fair CLR 9 -10 25% 6 76.2 0.0
02 12:35 W 24 G 30 16.09 Fair CLR 10 -8 28% 7 76.2 0.0
02 12:15 NW 22 G 30 16.09 Fair CLR 9 -8 29% 6 76.23 0.0
02 11:56 NW 17 16.09 Fair CLR 8 -10 27% 6 76.23 0.0
02 11:35 W 15 G 31 16.09 Fair CLR 8 -7 34% 6 76.23 0.0
02 11:15 W 22 16.09 Fair CLR 8 -7 34% 5 76.23 0.0
02 10:55 W 20 G 30 16.09 Fair CLR 8 -5 40% 5 76.23 0.0
02 10:35 W 19 16.09 Fair CLR 7 -4 46% 4 76.25 0.0
02 10:15 W 15 16.09 Fair CLR 7 -3 49% 5 76.25 0.0
02 09:55 W 13 16.09 Fair CLR 6 -3 53% 4 76.25 0.0
02 09:36 NW 13 16.09 Fair CLR 5 -2 61% 2 76.28 0.0
02 09:15 NW 17 16.09 Fair CLR 5 -2 61% 2 76.28 0.0
02 08:55 W 15 16.09 Fair CLR 4 -2 65% 1 76.28 0.0
02 08:35 W 13 16.09 Fair CLR 3 -2 70% 0 76.28 0.0
02 08:15 Vrbl 11 16.09 Fair CLR 2 -2 75% -1 76.3 0.0
02 07:55 W 13 16.09 Fair CLR 1 -3 0.9 -2.4 75% -2 76.3 0.0
02 07:35 W 9 16.09 Fair CLR 0 -3 80% -3 76.3 0.0
02 07:16 W 13 16.09 A Few Clouds FEW080 0 -3 80% -4 76.28 0.0
02 06:55 W 11 16.09 Mostly Cloudy BKN080 -1 -4 80% -4 76.28 0.0
02 06:35 W 9 16.09 A Few Clouds FEW080 -2 -4 86% -5 76.28 0.0
02 06:15 SW 11 16.09 A Few Clouds FEW080 -2 -5 80% -6 76.28 0.0
02 05:55 W 11 16.09 A Few Clouds FEW080 -2 -5 80% -6 76.28 0.0
02 05:35 SW 9 16.09 Fair CLR -2 -5 80% -5 76.28 0.0
02 05:15 SW 11 16.09 Fair CLR -2 -5 80% -6 76.28 0.0
02 04:56 W 13 16.09 Fair CLR -2 -5 80% -6 76.28 0.0
02 04:35 SW 9 16.09 Fair CLR -2 -5 80% -5 76.28 0.0
02 04:15 W 9 16.09 Fair CLR -2 -5 80% -5 76.25 0.0
02 03:55 W 7 16.09 Fair CLR -2 -5 80% -4 76.25 0.0
02 03:35 SW 11 16.09 Fair CLR -2 -5 80% -6 76.25 0.0
02 03:15 SW 11 16.09 Fair CLR -2 -5 80% -6 76.25 0.0
02 02:55 SW 9 16.09 Fair CLR -2 -5 80% -5 76.28 0.0
02 02:36 SW 7 16.09 Fair CLR -2 -5 80% -4 76.28 0.0
02 02:15 SW 6 16.09 Fair CLR -1 -5 75% 76.28 0.0
02 01:55 W 6 16.09 Fair CLR -1 -5 4.2 -1.2 75% 76.28 0.0
02 01:35 W 7 16.09 Fair CLR -1 -5 75% -3 76.28 0.0
02 01:15 W 7 16.09 Fair CLR -1 -5 75% -3 76.28 0.0
02 00:55 NW 9 16.09 Fair CLR -1 -6 69% -4 76.28 0.0
02 00:35 NW 7 16.09 Fair CLR -1 -5 75% -3 76.28 0.0
02 00:16 NW 7 16.09 Fair CLR -1 -5 75% -3 76.28 0.0
01 23:55 W 9 16.09 Fair CLR -1 -4 80% -4 76.28 0.0
01 23:35 NW 9 16.09 Fair CLR 0 -5 69% -3 76.28 0.0
01 23:15 W 7 16.09 Fair CLR 1 -4 70% -1 76.28 0.0
01 22:55 NW 6 16.09 Fair CLR 1 -4 70% 76.28 0.0
01 22:35 NW 9 16.09 Partly Cloudy SCT075 1 -5 65% -2 76.3 0.0
01 22:15 N 7 16.09 Overcast OVC075 2 -4 65% 0 76.3 0.0
01 21:56 N 9 16.09 Overcast BKN060 OVC075 3 -4 60% 1 76.28 0.0
01 21:35 N 9 16.09 Overcast OVC060 3 -4 60% 1 76.28 0.0
01 21:15 NW 9 16.09 Overcast FEW055 OVC070 4 -4 56% 2 76.25 0.0
01 20:55 N 11 16.09 Overcast FEW060 OVC070 4 -4 56% 2 76.25 0.0
01 20:35 NW 11 16.09 Overcast OVC070 4 -4 56% 2 76.25 0.0
01 20:15 NW 15 16.09 Overcast OVC070 4 -4 56% 1 76.23 0.0
01 19:55 NW 13 16.09 Overcast FEW050 OVC070 4 -4 6.4 4.1 56% 1 76.23 0.0
01 19:36 NW 11 16.09 Overcast BKN050 OVC070 4 -4 56% 2 76.23 0.0
01 19:15 NW 15 16.09 Overcast BKN050 OVC065 4 -4 56% 1 76.2 0.0
01 18:55 NW 13 16.09 Overcast BKN055 OVC065 5 -3 57% 2 76.23 0.0
01 18:35 NW 17 16.09 Overcast OVC060 5 -3 57% 2 76.2 0.0
01 18:15 W 15 16.09 Overcast FEW039 OVC060 5 -2 61% 2 76.2 0.0
01 17:55 NW 17 16.09 Overcast SCT038 SCT048 OVC060 5 -3 57% 2 76.17 0.0
01 17:35 NW 15 16.09 Overcast FEW048 OVC060 5 -4 53% 2 76.17 0.0
01 17:16 NW 19 16.09 Overcast FEW046 OVC060 5 -5 49% 2 76.15 0.0
01 16:55 NW 17 16.09 Overcast SCT048 OVC060 5 -5 49% 2 76.15 0.0
01 16:35 NW 19 16.09 Overcast FEW049 BKN060 OVC070 5 -6 45% 2 76.15 0.0
01 16:15 NW 17 16.09 Overcast OVC065 5 -5 49% 2 76.15 0.0
01 15:55 NW 15 16.09 Overcast OVC065 5 -5 49% 2 76.15 0.0
01 15:35 NW 20 16.09 Overcast FEW045 BKN065 OVC075 5 -6 45% 1 76.15 0.0
01 15:15 N 24 G 31 16.09 Overcast FEW047 OVC075 6 -5 46% 2 76.12 0.0
01 14:56 N 15 16.09 Overcast OVC075 6 -5 46% 3 76.12 0.0
01 14:35 N 17 16.09 Overcast SCT060 OVC075 6 -3 53% 3 76.15 0.0
01 14:15 N 9 16.09 Overcast FEW042 OVC055 5 -4 53% 3 76.15 0.0
01 13:55 NW 9 16.09 Overcast SCT038 SCT046 OVC065 4 -3 6.2 1.1 61% 2 76.15 0.0
01 13:35 NW 30 12.87 Overcast SCT045 BKN065 OVC075 4 -4 56% -1 76.15 0.0
01 13:15 NW 19 16.09 Overcast OVC075 5 -5 49% 2 76.12 0.0
01 12:55 NW 17 16.09 Overcast OVC075 5 -4 53% 2 76.12 0.0
01 12:36 N 17 16.09 Overcast OVC075 6 -3 53% 3 76.15 0.0
01 12:15 NW 19 16.09 Overcast OVC075 5 -4 53% 2 76.15 0.0
01 11:55 NW 20 G 28 16.09 Overcast OVC065 5 -4 53% 1 76.15 0.0
01 11:35 N 13 16.09 Overcast SCT048 SCT055 OVC075 5 -5 49% 2 76.15 0.0
01 11:15 NW 17 G 26 16.09 Overcast BKN048 BKN055 OVC075 5 -7 42% 2 76.17 0.0
01 10:55 N 15 16.09 Overcast BKN048 BKN060 OVC075 5 -6 45% 2 76.15 0.0
01 10:35 NW 15 16.09 Overcast BKN050 OVC065 5 -6 45% 2 76.15 0.0
01 10:16 NW 15 16.09 Overcast OVC065 4 -5 52% 1 76.15 0.0
01 09:55 NW 17 16.09 Overcast OVC065 4 -5 52% 1 76.15 0.0
01 09:35 NW 17 16.09 Overcast OVC065 4 -4 56% 1 76.15 0.0
01 09:15 NW 15 16.09 Overcast OVC065 3 -3 65% -0 76.15 0.0
01 08:55 NW 15 16.09 Overcast OVC065 3 -2 70% -0 76.15 0.0
01 08:35 NW 15 16.09 Overcast OVC065 2 -1 81% -2 76.15 0.0
01 08:15 NW 15 16.09 Overcast OVC065 2 -1 81% -2 76.12 0.0
01 07:56 NW 15 16.09 Overcast OVC065 1 -1 87% -3 76.12 0.0
01 07:35 NW 11 16.09 Overcast OVC065 1 -1 87% -2 76.12 0.0
01 07:15 W 11 16.09 Partly Cloudy SCT065 -1 -2 93% -4 76.1 0.0
01 06:55 W 11 16.09 Fair CLR -2 -4 86% -6 76.1 0.0
01 06:35 W 9 16.09 Fair CLR -2 -3 93% -5 76.1 0.0
01 06:15 W 9 16.09 Fair CLR -2 -3 93% -5 76.07 0.0
01 05:55 W 7 16.09 Fair CLR -1 -3 86% -3 76.1 0.0
01 05:36 W 9 16.09 Fair CLR -1 -3 86% -4 76.1 0.0
01 05:15 W 9 16.09 A Few Clouds FEW090 -1 -3 86% -4 76.1 0.0
01 04:55 W 11 16.09 Mostly Cloudy BKN090 -1 -3 86% -4 76.1 0.0
01 04:35 W 11 16.09 Mostly Cloudy FEW050 BKN090 0 -2 87% -3 76.07 0.0
01 04:15 NW 13 16.09 Overcast SCT050 OVC090 1 -2 81% -2 76.07 0.0
01 03:55 W 13 16.09 Overcast OVC090 1 -2 81% -2 76.07 0.0
01 03:35 W 13 16.09 Overcast OVC090 1 -2 81% -2 76.07 0.0
01 03:16 NW 15 16.09 Light Snow OVC090 1 -1 87% -3 76.1 0.0
01 02:55 NW 17 14.48 Light Snow FEW013 BKN070 OVC090 1 -1 87% -3 76.1 0.0
01 02:35 NW 17 16.09 Light Snow BKN012 BKN041 OVC090 1 -1 87% -3 76.1 0.0
01 02:15 NW 15 16.09 Light Snow SCT014 SCT039 OVC090 1 -1 87% -3 76.12 0.0
01 01:55 NW 17 G 30 16.09 Light Rain BKN014 BKN019 OVC090 1 -1 6.1 -0.3 87% -3 76.12 0.0
01 01:35 NW 15 16.09 Overcast BKN016 OVC090 1 -1 87% -3 76.12 0.0
01 01:15 W 13 16.09 Overcast FEW016 SCT034 OVC090 1 -2 81% -2 76.12 0.0
01 00:55 NW 9 16.09 Overcast FEW034 OVC090 0 -2 87% -3 76.12 0.0
01 00:35 NW 11 16.09 Overcast FEW030 OVC090 0 -2 87% -3 76.12 0.0
01 00:15 NW 11 16.09 Mostly Cloudy FEW030 BKN090 0 -2 87% -3 76.15 0.0
30 23:55 W 9 16.09 Partly Cloudy SCT090 0 -2 87% -3 76.12 0.0
30 23:35 W 11 16.09 Partly Cloudy SCT090 1 -1 87% -2 76.15 0.0
30 23:15 W 9 16.09 Fair CLR 0 -1 93% -3 76.15 0.0
30 22:55 NW 7 16.09 Mostly Cloudy FEW029 FEW034 BKN090 0 -1 93% -2 76.15 0.0
30 22:35 W 9 16.09 Mostly Cloudy SCT034 BKN049 BKN090 1 -1 87% -2 76.15 0.0
30 22:16 NW 6 16.09 Mostly Cloudy BKN049 1 0 93% 76.15 0.0
30 21:55 N 6 16.09 Mostly Cloudy FEW030 BKN049 1 0 93% 76.15 0.0
30 21:35 N 7 16.09 Mostly Cloudy SCT030 BKN045 2 0 87% 0 76.15 0.0
30 21:15 N 20 16.09 Overcast SCT017 BKN045 OVC080 3 0 81% -1 76.12 0.0
30 20:55 NW 22 16.09 Overcast SCT037 BKN046 OVC080 4 -1 70% -0 76.1 0.0
30 20:35 W 22 16.09 Mostly Cloudy BKN046 BKN095 5 -1 66% 1 76.07 0.0
30 20:15 NW 22 G 31 16.09 Mostly Cloudy FEW046 BKN095 5 -1 66% 1 76.07 0.0
30 19:35 W 19 G 30 16.09 Overcast SCT070 OVC095 6 -1 61% 3 76.07 0.0
30 19:15 W 20 G 31 16.09 Mostly Cloudy FEW035 SCT070 BKN095 6 -2 57% 3 76.05 0.0
30 18:55 W 19 G 31 16.09 Mostly Cloudy SCT035 SCT041 BKN070 7 -2 53% 4 76.07 0.0
30 18:35 W 22 G 28 16.09 Mostly Cloudy BKN033 BKN070 7 -1 57% 4 76.07 0.0
30 18:15 W 20 16.09 Overcast BKN034 OVC041 7 -1 57% 4 76.07 0.0
30 17:55 NW 22 16.09 Overcast BKN033 OVC041 7 -1 57% 4 76.07 0.0
30 17:36 NW 26 16.09 Overcast BKN033 OVC045 8 0 57% 5 76.07 0.0
30 17:15 N 13 16.09 Overcast BKN034 OVC046 7 1 66% 5 76.07 0.0
30 16:55 N 19 16.09 Overcast BKN032 OVC050 6 1 71% 3 76.07 0.0
30 16:35 NW 22 16.09 Overcast SCT031 BKN055 OVC100 7 -1 57% 4 76.07 0.0
30 16:15 NW 24 16.09 Overcast SCT026 BKN032 OVC100 7 0 61% 4 76.07 0.0
30 15:55 NW 24 G 33 16.09 Overcast OVC026 7 1 66% 4 76.07 0.0
30 15:35 W 24 G 31 16.09 Overcast BKN024 OVC029 7 2 71% 4 76.07 0.0
30 15:16 W 20 16.09 Overcast SCT018 BKN023 OVC110 6 1 71% 3 76.07 0.0
30 14:55 NW 17 16.09 Overcast BKN018 BKN023 OVC028 6 2 76% 3 76.07 0.0
30 14:35 W 17 16.09 Overcast SCT020 BKN026 OVC060 6 2 76% 3 76.07 0.0
30 14:15 W 13 16.09 Light Rain SCT013 BKN018 OVC031 5 3 87% 2 76.07 0.0
30 13:55 W 13 16.09 Light Rain BKN013 BKN026 OVC032 5 2 4.8 2 81% 2 76.1 0.0 0.05
30 13:35 Vrbl 6 14.48 Light Rain OVC007 3 2 93% 76.1 0.0
30 13:15 NE 9 14.48 Light Rain BKN005 OVC009 3 2 93% 1 76.1 0.0
30 12:56 NE 7 14.48 Light Rain OVC005 4 2 87% 2 76.1 0.0
30 12:35 NE 7 6.44 Light Rain Fog/Mist OVC007 3 2 93% 1 76.12 0.0
30 12:15 N 11 16.09 Light Rain FEW005 BKN010 OVC015 4 2 87% 2 76.12 0.0
30 11:55 Vrbl 4 16.09 Light Rain BKN005 BKN011 OVC023 3 2 93% 76.12 0.0 0.03
30 11:35 N 6 11.27 Unknown Precip OVC005 2 1 93% 76.12 0.0
30 11:15 N 7 9.66 Unknown Precip Fog/Mist OVC005 2 1 93% 0 76.12 0.0
30 10:55 N 11 16.09 Light Rain BKN009 OVC013 3 1 87% 0 76.12 0.0
30 10:36 N 7 16.09 Light Rain OVC011 3 1 87% 1 76.12 0.0
30 10:15 N 9 16.09 Light Rain OVC011 3 1 87% 1 76.12 0.0
30 09:55 N 7 16.09 Light Rain BKN011 BKN017 OVC045 3 0 81% 1 76.12 0.0
30 09:35 NW 9 16.09 Light Rain SCT011 BKN034 OVC045 3 0 81% 1 76.12 0.0
30 09:15 N 9 16.09 Light Rain FEW012 BKN034 OVC042 3 0 81% 1 76.12 0.0
30 08:55 W 11 16.09 Light Rain BKN042 OVC050 3 -1 75% 0 76.12 0.0
30 08:35 NW 13 16.09 Overcast OVC050 3 -1 75% 0 76.12 0.0
30 08:16 NW 13 16.09 Overcast BKN060 OVC065 3 -1 75% 0 76.12 0.0
30 07:55 NW 15 16.09 Overcast OVC050 2 0 2.3 0.7 87% -2 76.12 0.0
30 07:35 NW 13 16.09 Overcast BKN050 OVC065 2 0 87% -1 76.1 0.0
30 07:15 NW 9 16.09 Overcast BKN050 OVC065 2 -1 81% -0 76.1 0.0
30 06:55 NW 11 16.09 Overcast OVC048 2 -1 81% -1 76.1 0.0
30 06:35 NW 11 16.09 Overcast OVC046 2 -1 81% -1 76.1 0.0
30 06:15 N 13 16.09 Overcast OVC042 2 -1 81% -1 76.07 0.0
30 05:56 NW 9 16.09 Overcast OVC042 2 -1 81% -0 76.07 0.0
30 05:35 NW 9 16.09 Mostly Cloudy BKN042 BKN110 2 -1 81% -0 76.07 0.0
30 05:15 NW 9 16.09 Mostly Cloudy BKN110 1 -2 81% -2 76.07 0.0
30 04:55 W 4 16.09 Overcast OVC110 1 -2 81% 76.07 0.0
30 04:35 N 7 16.09 Partly Cloudy SCT120 2 -2 75% 0 76.07 0.0
30 04:15 NW 9 16.09 Fair CLR 1 -2 81% -2 76.07 0.0
30 03:55 NW 6 16.09 Fair CLR 2 -2 75% 76.05 0.0
30 03:36 NW 9 16.09 Fair CLR 2 -2 75% -0 76.05 0.0
30 03:15 NW 11 16.09 Fair CLR 2 -2 75% -1 76.05 0.0
30 02:55 NW 11 16.09 Fair CLR 2 -2 75% -1 76.07 0.0
30 02:35 W 9 16.09 Fair CLR 1 -3 75% -2 76.07 0.0
30 02:15 NW 7 16.09 Fair CLR 1 -3 75% -1 76.07 0.0
30 01:55 NW 15 16.09 Fair CLR 2 -3 6.3 1.6 70% -2 76.1 0.0
30 01:35 NW 13 16.09 A Few Clouds FEW120 2 -3 70% -1 76.1 0.0
30 01:16 NW 15 16.09 Mostly Cloudy BKN120 2 -3 70% -2 76.1 0.0
30 00:55 NW 15 16.09 A Few Clouds FEW120 2 -3 70% -2 76.1 0.0
30 00:35 NW 11 16.09 A Few Clouds FEW120 2 -3 70% -1 76.1 0.0
30 00:15 NW 17 16.09 A Few Clouds FEW120 2 -3 70% -2 76.1 0.0
29 23:55 NW 15 16.09 Fair CLR 2 -3 70% -2 76.1 0.0
29 23:35 NW 13 16.09 Fair CLR 3 -3 65% 0 76.1 0.0
29 23:15 NW 11 16.09 A Few Clouds FEW120 2 -3 70% -1 76.07 0.0
29 22:56 W 11 16.09 A Few Clouds FEW120 3 -3 65% 0 76.07 0.0
29 22:35 NW 11 16.09 Fair CLR 3 -3 65% 0 76.07 0.0
29 22:15 N 11 16.09 A Few Clouds FEW100 4 -3 61% 2 76.05 0.0
29 21:55 N 17 16.09 Mostly Cloudy BKN100 5 -3 57% 2 76.05 0.0
29 21:35 N 19 16.09 Overcast OVC110 5 -4 53% 2 76.05 0.0
29 21:15 N 20 16.09 Overcast OVC110 5 -3 57% 1 76.05 0.0
29 20:55 N 15 16.09 Overcast OVC110 5 -3 57% 2 76.05 0.0
29 20:36 N 19 16.09 Overcast OVC110 6 -4 49% 3 76.05 0.0
29 20:15 N 15 16.09 Mostly Cloudy BKN110 6 -4 49% 3 76.02 0.0
29 19:55 N 19 16.09 Mostly Cloudy BKN100 6 -4 10.6 6.3 49% 3 76.02 0.0
Date Time (edt) Wind (kph) Vis. (km) Weather Sky Cond. Air Dwpt Max. Min. Relative Humidity Wind Chill (°C) Heat Index (°C) altimeter (cm) sea level (mb) 1 hr 3 hr 6 hr
6 hour
Temperature (ºC) Pressure Precipitation (cm)